sensor_id;sensor_type;location;lat;lon;timestamp;P1;durP1;ratioP1;P2;durP2;ratioP2
12224;SDS011;6175;50.956;11.064;2023-04-25T00:01:44;6.82;;;4.55;;
12224;SDS011;6175;50.956;11.064;2023-04-25T00:04:11;5.80;;;4.45;;
12224;SDS011;6175;50.956;11.064;2023-04-25T00:06:40;5.30;;;4.38;;
12224;SDS011;6175;50.956;11.064;2023-04-25T00:09:07;5.95;;;4.05;;
12224;SDS011;6175;50.956;11.064;2023-04-25T00:11:36;5.25;;;4.07;;
12224;SDS011;6175;50.956;11.064;2023-04-25T00:14:03;5.93;;;4.10;;
12224;SDS011;6175;50.956;11.064;2023-04-25T00:16:31;7.10;;;4.25;;
12224;SDS011;6175;50.956;11.064;2023-04-25T00:18:59;5.65;;;4.43;;
12224;SDS011;6175;50.956;11.064;2023-04-25T00:21:28;4.47;;;4.07;;
12224;SDS011;6175;50.956;11.064;2023-04-25T00:23:57;5.78;;;4.20;;
12224;SDS011;6175;50.956;11.064;2023-04-25T00:26:25;5.38;;;4.50;;
12224;SDS011;6175;50.956;11.064;2023-04-25T00:28:52;7.18;;;4.93;;
12224;SDS011;6175;50.956;11.064;2023-04-25T00:31:19;5.70;;;5.15;;
12224;SDS011;6175;50.956;11.064;2023-04-25T00:33:46;5.57;;;4.47;;
12224;SDS011;6175;50.956;11.064;2023-04-25T00:36:14;6.05;;;5.28;;
12224;SDS011;6175;50.956;11.064;2023-04-25T00:38:42;6.25;;;4.70;;
12224;SDS011;6175;50.956;11.064;2023-04-25T00:41:10;5.53;;;4.63;;
12224;SDS011;6175;50.956;11.064;2023-04-25T00:43:37;6.82;;;4.32;;
12224;SDS011;6175;50.956;11.064;2023-04-25T00:46:06;4.97;;;4.40;;
12224;SDS011;6175;50.956;11.064;2023-04-25T00:48:33;5.43;;;4.35;;
12224;SDS011;6175;50.956;11.064;2023-04-25T00:51:00;7.20;;;4.88;;
12224;SDS011;6175;50.956;11.064;2023-04-25T00:53:28;6.20;;;4.32;;
12224;SDS011;6175;50.956;11.064;2023-04-25T00:55:57;5.28;;;4.00;;
12224;SDS011;6175;50.956;11.064;2023-04-25T00:58:25;4.93;;;3.80;;
12224;SDS011;6175;50.956;11.064;2023-04-25T01:00:53;5.63;;;3.75;;
12224;SDS011;6175;50.956;11.064;2023-04-25T01:03:21;4.43;;;3.80;;
12224;SDS011;6175;50.956;11.064;2023-04-25T01:05:49;4.10;;;3.72;;
12224;SDS011;6175;50.956;11.064;2023-04-25T01:08:16;4.47;;;3.78;;
12224;SDS011;6175;50.956;11.064;2023-04-25T01:10:43;3.85;;;3.55;;
12224;SDS011;6175;50.956;11.064;2023-04-25T01:13:11;4.97;;;3.70;;
12224;SDS011;6175;50.956;11.064;2023-04-25T01:15:39;4.55;;;3.83;;
12224;SDS011;6175;50.956;11.064;2023-04-25T01:18:06;3.88;;;3.55;;
12224;SDS011;6175;50.956;11.064;2023-04-25T01:20:34;4.47;;;4.07;;
12224;SDS011;6175;50.956;11.064;2023-04-25T01:23:02;3.75;;;3.33;;
12224;SDS011;6175;50.956;11.064;2023-04-25T01:25:30;5.03;;;4.00;;
12224;SDS011;6175;50.956;11.064;2023-04-25T01:27:57;4.72;;;3.70;;
12224;SDS011;6175;50.956;11.064;2023-04-25T01:30:25;5.97;;;4.40;;
12224;SDS011;6175;50.956;11.064;2023-04-25T01:32:53;4.97;;;4.47;;
12224;SDS011;6175;50.956;11.064;2023-04-25T01:35:21;5.25;;;4.75;;
12224;SDS011;6175;50.956;11.064;2023-04-25T01:37:50;6.15;;;4.70;;
12224;SDS011;6175;50.956;11.064;2023-04-25T01:40:19;7.38;;;5.20;;
12224;SDS011;6175;50.956;11.064;2023-04-25T01:42:48;6.95;;;4.78;;
12224;SDS011;6175;50.956;11.064;2023-04-25T01:45:15;5.10;;;4.60;;
12224;SDS011;6175;50.956;11.064;2023-04-25T01:47:42;5.30;;;4.78;;
12224;SDS011;6175;50.956;11.064;2023-04-25T01:50:14;6.38;;;5.25;;
12224;SDS011;6175;50.956;11.064;2023-04-25T01:52:41;9.52;;;5.40;;
12224;SDS011;6175;50.956;11.064;2023-04-25T01:55:09;7.85;;;5.07;;
12224;SDS011;6175;50.956;11.064;2023-04-25T01:57:37;4.78;;;4.32;;
12224;SDS011;6175;50.956;11.064;2023-04-25T02:00:05;5.70;;;4.20;;
12224;SDS011;6175;50.956;11.064;2023-04-25T02:02:33;5.55;;;4.80;;
12224;SDS011;6175;50.956;11.064;2023-04-25T02:05:00;5.32;;;4.10;;
12224;SDS011;6175;50.956;11.064;2023-04-25T02:07:28;4.28;;;3.88;;
12224;SDS011;6175;50.956;11.064;2023-04-25T02:09:55;5.25;;;4.60;;
12224;SDS011;6175;50.956;11.064;2023-04-25T02:12:22;6.78;;;4.25;;
12224;SDS011;6175;50.956;11.064;2023-04-25T02:14:52;4.78;;;3.67;;
12224;SDS011;6175;50.956;11.064;2023-04-25T02:17:19;5.85;;;4.38;;
12224;SDS011;6175;50.956;11.064;2023-04-25T02:19:47;4.50;;;3.90;;
12224;SDS011;6175;50.956;11.064;2023-04-25T02:22:15;5.35;;;3.90;;
12224;SDS011;6175;50.956;11.064;2023-04-25T02:24:42;4.85;;;3.92;;
12224;SDS011;6175;50.956;11.064;2023-04-25T02:27:09;4.68;;;3.75;;
12224;SDS011;6175;50.956;11.064;2023-04-25T02:29:36;4.47;;;3.58;;
12224;SDS011;6175;50.956;11.064;2023-04-25T02:32:05;6.32;;;4.18;;
12224;SDS011;6175;50.956;11.064;2023-04-25T02:34:32;4.20;;;3.80;;
12224;SDS011;6175;50.956;11.064;2023-04-25T02:36:59;5.75;;;4.00;;
12224;SDS011;6175;50.956;11.064;2023-04-25T02:39:26;3.92;;;3.63;;
12224;SDS011;6175;50.956;11.064;2023-04-25T02:41:53;4.28;;;3.88;;
12224;SDS011;6175;50.956;11.064;2023-04-25T02:44:21;3.97;;;3.58;;
12224;SDS011;6175;50.956;11.064;2023-04-25T02:46:48;3.75;;;3.25;;
12224;SDS011;6175;50.956;11.064;2023-04-25T02:49:16;5.80;;;3.25;;
12224;SDS011;6175;50.956;11.064;2023-04-25T02:51:44;3.80;;;3.42;;
12224;SDS011;6175;50.956;11.064;2023-04-25T02:54:11;4.35;;;3.40;;
12224;SDS011;6175;50.956;11.064;2023-04-25T02:56:38;4.70;;;3.60;;
12224;SDS011;6175;50.956;11.064;2023-04-25T02:59:05;4.93;;;3.42;;
12224;SDS011;6175;50.956;11.064;2023-04-25T03:01:32;3.90;;;3.50;;
12224;SDS011;6175;50.956;11.064;2023-04-25T03:04:00;3.45;;;3.15;;
12224;SDS011;6175;50.956;11.064;2023-04-25T03:06:28;4.10;;;3.60;;
12224;SDS011;6175;50.956;11.064;2023-04-25T03:08:55;4.30;;;3.47;;
12224;SDS011;6175;50.956;11.064;2023-04-25T03:11:24;5.07;;;3.25;;
12224;SDS011;6175;50.956;11.064;2023-04-25T03:13:51;3.40;;;3.10;;
12224;SDS011;6175;50.956;11.064;2023-04-25T03:16:19;3.55;;;3.25;;
12224;SDS011;6175;50.956;11.064;2023-04-25T03:18:46;3.45;;;3.15;;
12224;SDS011;6175;50.956;11.064;2023-04-25T03:21:14;3.63;;;2.90;;
12224;SDS011;6175;50.956;11.064;2023-04-25T03:23:43;3.20;;;2.90;;
12224;SDS011;6175;50.956;11.064;2023-04-25T03:26:10;5.90;;;3.47;;
12224;SDS011;6175;50.956;11.064;2023-04-25T03:28:37;3.90;;;3.47;;
12224;SDS011;6175;50.956;11.064;2023-04-25T03:31:05;3.50;;;3.10;;
12224;SDS011;6175;50.956;11.064;2023-04-25T03:33:32;4.00;;;3.22;;
12224;SDS011;6175;50.956;11.064;2023-04-25T03:36:00;3.67;;;3.33;;
12224;SDS011;6175;50.956;11.064;2023-04-25T03:38:27;3.60;;;3.30;;
12224;SDS011;6175;50.956;11.064;2023-04-25T03:40:55;4.18;;;3.78;;
12224;SDS011;6175;50.956;11.064;2023-04-25T03:43:22;4.70;;;3.60;;
12224;SDS011;6175;50.956;11.064;2023-04-25T03:45:50;3.83;;;3.53;;
12224;SDS011;6175;50.956;11.064;2023-04-25T03:48:17;4.55;;;3.60;;
12224;SDS011;6175;50.956;11.064;2023-04-25T03:50:46;6.05;;;4.10;;
12224;SDS011;6175;50.956;11.064;2023-04-25T03:53:13;4.68;;;3.70;;
12224;SDS011;6175;50.956;11.064;2023-04-25T03:55:40;3.78;;;3.40;;
12224;SDS011;6175;50.956;11.064;2023-04-25T03:58:09;5.47;;;4.20;;
12224;SDS011;6175;50.956;11.064;2023-04-25T04:00:36;4.78;;;4.28;;
12224;SDS011;6175;50.956;11.064;2023-04-25T04:03:03;5.35;;;4.32;;
12224;SDS011;6175;50.956;11.064;2023-04-25T04:05:31;5.38;;;4.63;;
12224;SDS011;6175;50.956;11.064;2023-04-25T04:07:58;5.53;;;4.72;;
12224;SDS011;6175;50.956;11.064;2023-04-25T04:10:25;6.22;;;4.82;;
12224;SDS011;6175;50.956;11.064;2023-04-25T04:12:53;5.20;;;4.70;;
12224;SDS011;6175;50.956;11.064;2023-04-25T04:15:21;5.43;;;4.90;;
12224;SDS011;6175;50.956;11.064;2023-04-25T04:17:48;6.22;;;5.22;;
12224;SDS011;6175;50.956;11.064;2023-04-25T04:20:16;8.43;;;5.10;;
12224;SDS011;6175;50.956;11.064;2023-04-25T04:22:43;7.25;;;5.10;;
12224;SDS011;6175;50.956;11.064;2023-04-25T04:25:10;8.32;;;5.63;;
12224;SDS011;6175;50.956;11.064;2023-04-25T04:27:37;6.70;;;5.10;;
12224;SDS011;6175;50.956;11.064;2023-04-25T04:30:06;5.28;;;4.70;;
12224;SDS011;6175;50.956;11.064;2023-04-25T04:32:34;6.75;;;5.28;;
12224;SDS011;6175;50.956;11.064;2023-04-25T04:35:02;5.55;;;4.60;;
12224;SDS011;6175;50.956;11.064;2023-04-25T04:37:29;8.10;;;5.10;;
12224;SDS011;6175;50.956;11.064;2023-04-25T04:39:57;7.97;;;4.88;;
12224;SDS011;6175;50.956;11.064;2023-04-25T04:42:26;7.07;;;5.45;;
12224;SDS011;6175;50.956;11.064;2023-04-25T04:45:07;7.55;;;4.80;;
12224;SDS011;6175;50.956;11.064;2023-04-25T04:47:36;6.63;;;5.57;;
12224;SDS011;6175;50.956;11.064;2023-04-25T04:50:05;6.60;;;4.70;;
12224;SDS011;6175;50.956;11.064;2023-04-25T04:52:33;6.60;;;4.97;;
12224;SDS011;6175;50.956;11.064;2023-04-25T04:55:01;5.50;;;4.90;;
12224;SDS011;6175;50.956;11.064;2023-04-25T04:57:28;7.40;;;5.28;;
12224;SDS011;6175;50.956;11.064;2023-04-25T04:59:58;8.18;;;5.25;;
12224;SDS011;6175;50.956;11.064;2023-04-25T05:02:25;6.10;;;5.28;;
12224;SDS011;6175;50.956;11.064;2023-04-25T05:04:57;6.45;;;4.88;;
12224;SDS011;6175;50.956;11.064;2023-04-25T05:07:24;5.35;;;4.57;;
12224;SDS011;6175;50.956;11.064;2023-04-25T05:09:51;6.60;;;5.20;;
12224;SDS011;6175;50.956;11.064;2023-04-25T05:12:18;6.07;;;5.07;;
12224;SDS011;6175;50.956;11.064;2023-04-25T05:14:45;8.30;;;4.60;;
12224;SDS011;6175;50.956;11.064;2023-04-25T05:17:13;6.40;;;4.90;;
12224;SDS011;6175;50.956;11.064;2023-04-25T05:19:40;6.47;;;4.53;;
12224;SDS011;6175;50.956;11.064;2023-04-25T05:22:08;6.22;;;4.72;;
12224;SDS011;6175;50.956;11.064;2023-04-25T05:24:36;6.55;;;4.75;;
12224;SDS011;6175;50.956;11.064;2023-04-25T05:27:03;6.50;;;4.80;;
12224;SDS011;6175;50.956;11.064;2023-04-25T05:29:30;8.40;;;5.20;;
12224;SDS011;6175;50.956;11.064;2023-04-25T05:31:57;7.38;;;4.95;;
12224;SDS011;6175;50.956;11.064;2023-04-25T05:34:25;6.40;;;4.75;;
12224;SDS011;6175;50.956;11.064;2023-04-25T05:36:52;5.38;;;4.75;;
12224;SDS011;6175;50.956;11.064;2023-04-25T05:39:20;5.13;;;4.30;;
12224;SDS011;6175;50.956;11.064;2023-04-25T05:41:48;7.15;;;5.20;;
12224;SDS011;6175;50.956;11.064;2023-04-25T05:44:15;9.30;;;5.25;;
12224;SDS011;6175;50.956;11.064;2023-04-25T05:46:42;7.20;;;4.78;;
12224;SDS011;6175;50.956;11.064;2023-04-25T05:49:10;5.47;;;4.57;;
12224;SDS011;6175;50.956;11.064;2023-04-25T05:51:37;8.90;;;5.43;;
12224;SDS011;6175;50.956;11.064;2023-04-25T05:54:04;7.03;;;5.00;;
12224;SDS011;6175;50.956;11.064;2023-04-25T05:56:33;6.65;;;4.68;;
12224;SDS011;6175;50.956;11.064;2023-04-25T05:59:00;8.85;;;5.00;;
12224;SDS011;6175;50.956;11.064;2023-04-25T06:01:28;9.90;;;5.35;;
12224;SDS011;6175;50.956;11.064;2023-04-25T06:03:55;10.10;;;5.05;;
12224;SDS011;6175;50.956;11.064;2023-04-25T06:06:22;6.32;;;4.90;;
12224;SDS011;6175;50.956;11.064;2023-04-25T06:08:49;6.68;;;4.75;;
12224;SDS011;6175;50.956;11.064;2023-04-25T06:11:16;6.28;;;4.20;;
12224;SDS011;6175;50.956;11.064;2023-04-25T06:13:45;5.32;;;4.57;;
12224;SDS011;6175;50.956;11.064;2023-04-25T06:16:12;7.30;;;4.40;;
12224;SDS011;6175;50.956;11.064;2023-04-25T06:18:39;6.10;;;3.97;;
12224;SDS011;6175;50.956;11.064;2023-04-25T06:21:07;7.07;;;4.57;;
12224;SDS011;6175;50.956;11.064;2023-04-25T06:23:34;4.63;;;4.10;;
12224;SDS011;6175;50.956;11.064;2023-04-25T06:26:01;5.18;;;4.47;;
12224;SDS011;6175;50.956;11.064;2023-04-25T06:28:28;8.35;;;4.25;;
12224;SDS011;6175;50.956;11.064;2023-04-25T06:30:56;4.80;;;3.72;;
12224;SDS011;6175;50.956;11.064;2023-04-25T06:33:23;6.25;;;3.97;;
12224;SDS011;6175;50.956;11.064;2023-04-25T06:35:51;4.88;;;3.65;;
12224;SDS011;6175;50.956;11.064;2023-04-25T06:38:18;6.57;;;3.83;;
12224;SDS011;6175;50.956;11.064;2023-04-25T06:40:45;4.97;;;3.63;;
12224;SDS011;6175;50.956;11.064;2023-04-25T06:43:12;6.10;;;3.40;;
12224;SDS011;6175;50.956;11.064;2023-04-25T06:45:40;7.75;;;3.88;;
12224;SDS011;6175;50.956;11.064;2023-04-25T06:48:08;5.75;;;3.70;;
12224;SDS011;6175;50.956;11.064;2023-04-25T06:50:35;5.40;;;3.50;;
12224;SDS011;6175;50.956;11.064;2023-04-25T06:53:02;5.13;;;3.47;;
12224;SDS011;6175;50.956;11.064;2023-04-25T06:55:29;6.85;;;4.15;;
12224;SDS011;6175;50.956;11.064;2023-04-25T06:57:56;4.50;;;3.75;;
12224;SDS011;6175;50.956;11.064;2023-04-25T07:00:23;6.28;;;4.47;;
12224;SDS011;6175;50.956;11.064;2023-04-25T07:02:51;6.03;;;3.92;;
12224;SDS011;6175;50.956;11.064;2023-04-25T07:05:19;5.07;;;3.75;;
12224;SDS011;6175;50.956;11.064;2023-04-25T07:07:46;4.18;;;3.42;;
12224;SDS011;6175;50.956;11.064;2023-04-25T07:10:13;6.60;;;3.65;;
12224;SDS011;6175;50.956;11.064;2023-04-25T07:12:40;5.38;;;4.00;;
12224;SDS011;6175;50.956;11.064;2023-04-25T07:15:07;5.03;;;3.88;;
12224;SDS011;6175;50.956;11.064;2023-04-25T07:17:35;6.68;;;4.95;;
12224;SDS011;6175;50.956;11.064;2023-04-25T07:20:03;4.68;;;3.63;;
12224;SDS011;6175;50.956;11.064;2023-04-25T07:22:32;6.28;;;3.85;;
12224;SDS011;6175;50.956;11.064;2023-04-25T07:24:59;5.40;;;3.67;;
12224;SDS011;6175;50.956;11.064;2023-04-25T07:27:26;5.50;;;3.85;;
12224;SDS011;6175;50.956;11.064;2023-04-25T07:29:53;7.57;;;4.25;;
12224;SDS011;6175;50.956;11.064;2023-04-25T07:32:20;7.30;;;4.43;;
12224;SDS011;6175;50.956;11.064;2023-04-25T07:34:47;4.40;;;3.50;;
12224;SDS011;6175;50.956;11.064;2023-04-25T07:37:14;6.05;;;3.60;;
12224;SDS011;6175;50.956;11.064;2023-04-25T07:39:42;4.13;;;3.67;;
12224;SDS011;6175;50.956;11.064;2023-04-25T07:42:11;5.18;;;3.55;;
12224;SDS011;6175;50.956;11.064;2023-04-25T07:44:38;6.55;;;3.65;;
12224;SDS011;6175;50.956;11.064;2023-04-25T07:47:05;4.18;;;3.75;;
12224;SDS011;6175;50.956;11.064;2023-04-25T07:49:33;4.72;;;4.10;;
12224;SDS011;6175;50.956;11.064;2023-04-25T07:52:00;5.13;;;3.85;;
12224;SDS011;6175;50.956;11.064;2023-04-25T07:54:27;5.00;;;3.55;;
12224;SDS011;6175;50.956;11.064;2023-04-25T07:56:56;4.40;;;4.00;;
12224;SDS011;6175;50.956;11.064;2023-04-25T07:59:23;6.72;;;3.72;;
12224;SDS011;6175;50.956;11.064;2023-04-25T08:01:50;5.13;;;3.85;;
12224;SDS011;6175;50.956;11.064;2023-04-25T08:04:17;4.07;;;3.70;;
12224;SDS011;6175;50.956;11.064;2023-04-25T08:06:43;6.43;;;4.07;;
12224;SDS011;6175;50.956;11.064;2023-04-25T08:09:11;4.70;;;3.33;;
12224;SDS011;6175;50.956;11.064;2023-04-25T08:11:38;7.70;;;3.75;;
12224;SDS011;6175;50.956;11.064;2023-04-25T08:14:07;4.82;;;3.38;;
12224;SDS011;6175;50.956;11.064;2023-04-25T08:16:33;4.90;;;3.97;;
12224;SDS011;6175;50.956;11.064;2023-04-25T08:19:00;5.60;;;3.97;;
12224;SDS011;6175;50.956;11.064;2023-04-25T08:21:27;6.90;;;4.57;;
12224;SDS011;6175;50.956;11.064;2023-04-25T08:23:54;5.75;;;4.38;;
12224;SDS011;6175;50.956;11.064;2023-04-25T08:26:23;7.32;;;4.47;;
12224;SDS011;6175;50.956;11.064;2023-04-25T08:28:50;8.05;;;4.40;;
12224;SDS011;6175;50.956;11.064;2023-04-25T08:31:18;4.90;;;4.13;;
12224;SDS011;6175;50.956;11.064;2023-04-25T08:33:45;6.13;;;4.25;;
12224;SDS011;6175;50.956;11.064;2023-04-25T08:36:12;6.68;;;3.85;;
12224;SDS011;6175;50.956;11.064;2023-04-25T08:38:39;4.15;;;3.35;;
12224;SDS011;6175;50.956;11.064;2023-04-25T08:41:06;4.13;;;3.30;;
12224;SDS011;6175;50.956;11.064;2023-04-25T08:43:33;4.75;;;3.88;;
12224;SDS011;6175;50.956;11.064;2023-04-25T08:46:01;4.65;;;3.20;;
12224;SDS011;6175;50.956;11.064;2023-04-25T08:48:31;6.63;;;4.57;;
12224;SDS011;6175;50.956;11.064;2023-04-25T08:50:59;5.78;;;4.18;;
12224;SDS011;6175;50.956;11.064;2023-04-25T08:53:30;12.55;;;11.50;;
12224;SDS011;6175;50.956;11.064;2023-04-25T08:56:00;5.78;;;5.18;;
12224;SDS011;6175;50.956;11.064;2023-04-25T08:58:28;6.13;;;4.70;;
12224;SDS011;6175;50.956;11.064;2023-04-25T09:00:55;4.60;;;4.18;;
12224;SDS011;6175;50.956;11.064;2023-04-25T09:03:22;5.50;;;4.40;;
12224;SDS011;6175;50.956;11.064;2023-04-25T09:05:51;5.15;;;4.00;;
12224;SDS011;6175;50.956;11.064;2023-04-25T09:08:19;4.15;;;3.75;;
12224;SDS011;6175;50.956;11.064;2023-04-25T09:10:46;4.47;;;3.92;;
12224;SDS011;6175;50.956;11.064;2023-04-25T09:13:14;6.63;;;3.95;;
12224;SDS011;6175;50.956;11.064;2023-04-25T09:15:50;4.53;;;4.05;;
12224;SDS011;6175;50.956;11.064;2023-04-25T09:18:24;5.32;;;3.40;;
12224;SDS011;6175;50.956;11.064;2023-04-25T09:20:53;5.60;;;3.67;;
12224;SDS011;6175;50.956;11.064;2023-04-25T09:23:21;3.85;;;3.45;;
12224;SDS011;6175;50.956;11.064;2023-04-25T09:25:49;4.03;;;2.60;;
12224;SDS011;6175;50.956;11.064;2023-04-25T09:28:22;4.00;;;2.35;;
12224;SDS011;6175;50.956;11.064;2023-04-25T09:30:49;3.72;;;2.42;;
12224;SDS011;6175;50.956;11.064;2023-04-25T09:33:16;3.63;;;2.38;;
12224;SDS011;6175;50.956;11.064;2023-04-25T09:35:44;4.15;;;2.70;;
12224;SDS011;6175;50.956;11.064;2023-04-25T09:38:12;4.57;;;2.83;;
12224;SDS011;6175;50.956;11.064;2023-04-25T09:40:44;2.75;;;2.40;;
12224;SDS011;6175;50.956;11.064;2023-04-25T09:43:18;5.60;;;2.88;;
12224;SDS011;6175;50.956;11.064;2023-04-25T09:45:46;7.32;;;2.92;;
12224;SDS011;6175;50.956;11.064;2023-04-25T09:48:17;5.45;;;2.95;;
12224;SDS011;6175;50.956;11.064;2023-04-25T09:50:45;7.63;;;3.65;;
12224;SDS011;6175;50.956;11.064;2023-04-25T09:53:13;7.20;;;2.95;;
12224;SDS011;6175;50.956;11.064;2023-04-25T09:55:40;6.28;;;3.20;;
12224;SDS011;6175;50.956;11.064;2023-04-25T09:58:09;4.70;;;2.92;;
12224;SDS011;6175;50.956;11.064;2023-04-25T10:00:37;6.65;;;3.60;;
12224;SDS011;6175;50.956;11.064;2023-04-25T10:03:05;12.02;;;3.80;;
12224;SDS011;6175;50.956;11.064;2023-04-25T10:05:32;10.40;;;4.10;;
12224;SDS011;6175;50.956;11.064;2023-04-25T10:08:02;7.68;;;3.85;;
12224;SDS011;6175;50.956;11.064;2023-04-25T10:10:31;8.95;;;3.78;;
12224;SDS011;6175;50.956;11.064;2023-04-25T10:13:02;9.50;;;3.83;;
12224;SDS011;6175;50.956;11.064;2023-04-25T10:15:30;9.00;;;4.28;;
12224;SDS011;6175;50.956;11.064;2023-04-25T10:17:57;9.23;;;4.00;;
12224;SDS011;6175;50.956;11.064;2023-04-25T10:20:25;12.93;;;4.00;;
12224;SDS011;6175;50.956;11.064;2023-04-25T10:22:53;9.18;;;4.03;;
12224;SDS011;6175;50.956;11.064;2023-04-25T10:25:24;7.88;;;3.45;;
12224;SDS011;6175;50.956;11.064;2023-04-25T10:27:52;8.30;;;4.10;;
12224;SDS011;6175;50.956;11.064;2023-04-25T10:30:20;9.75;;;4.03;;
12224;SDS011;6175;50.956;11.064;2023-04-25T10:32:47;7.35;;;3.58;;
12224;SDS011;6175;50.956;11.064;2023-04-25T10:35:16;7.53;;;3.17;;
12224;SDS011;6175;50.956;11.064;2023-04-25T10:37:57;6.55;;;3.22;;
12224;SDS011;6175;50.956;11.064;2023-04-25T10:40:25;6.68;;;2.92;;
12224;SDS011;6175;50.956;11.064;2023-04-25T10:42:53;8.48;;;3.42;;
12224;SDS011;6175;50.956;11.064;2023-04-25T10:45:21;7.63;;;3.35;;
12224;SDS011;6175;50.956;11.064;2023-04-25T10:47:48;5.90;;;3.13;;
12224;SDS011;6175;50.956;11.064;2023-04-25T10:50:15;9.35;;;3.53;;
12224;SDS011;6175;50.956;11.064;2023-04-25T10:52:42;7.38;;;3.33;;
12224;SDS011;6175;50.956;11.064;2023-04-25T10:55:10;6.35;;;3.35;;
12224;SDS011;6175;50.956;11.064;2023-04-25T10:57:38;8.35;;;3.13;;
12224;SDS011;6175;50.956;11.064;2023-04-25T11:00:09;9.07;;;3.40;;
12224;SDS011;6175;50.956;11.064;2023-04-25T11:02:37;7.35;;;3.05;;
12224;SDS011;6175;50.956;11.064;2023-04-25T11:05:05;5.63;;;3.22;;
12224;SDS011;6175;50.956;11.064;2023-04-25T11:07:34;6.22;;;2.80;;
12224;SDS011;6175;50.956;11.064;2023-04-25T11:10:02;4.63;;;3.03;;
12224;SDS011;6175;50.956;11.064;2023-04-25T11:12:30;8.18;;;3.30;;
12224;SDS011;6175;50.956;11.064;2023-04-25T11:15:01;8.43;;;3.00;;
12224;SDS011;6175;50.956;11.064;2023-04-25T11:17:30;8.10;;;3.00;;
12224;SDS011;6175;50.956;11.064;2023-04-25T11:19:58;8.48;;;2.80;;
12224;SDS011;6175;50.956;11.064;2023-04-25T11:22:26;5.30;;;2.72;;
12224;SDS011;6175;50.956;11.064;2023-04-25T11:24:53;7.63;;;3.22;;
12224;SDS011;6175;50.956;11.064;2023-04-25T11:27:21;4.95;;;2.90;;
12224;SDS011;6175;50.956;11.064;2023-04-25T11:29:49;6.90;;;2.58;;
12224;SDS011;6175;50.956;11.064;2023-04-25T11:32:17;5.72;;;2.70;;
12224;SDS011;6175;50.956;11.064;2023-04-25T11:34:46;6.03;;;3.15;;
12224;SDS011;6175;50.956;11.064;2023-04-25T11:37:13;6.88;;;2.60;;
12224;SDS011;6175;50.956;11.064;2023-04-25T11:39:43;7.25;;;2.75;;
12224;SDS011;6175;50.956;11.064;2023-04-25T11:42:12;7.55;;;2.85;;
12224;SDS011;6175;50.956;11.064;2023-04-25T11:44:39;8.10;;;3.00;;
12224;SDS011;6175;50.956;11.064;2023-04-25T11:47:06;6.68;;;3.15;;
12224;SDS011;6175;50.956;11.064;2023-04-25T11:49:34;5.38;;;3.05;;
12224;SDS011;6175;50.956;11.064;2023-04-25T11:52:03;9.70;;;3.17;;
12224;SDS011;6175;50.956;11.064;2023-04-25T11:54:34;7.22;;;3.25;;
12224;SDS011;6175;50.956;11.064;2023-04-25T11:57:02;7.43;;;2.90;;
12224;SDS011;6175;50.956;11.064;2023-04-25T11:59:29;6.85;;;3.25;;
12224;SDS011;6175;50.956;11.064;2023-04-25T12:01:56;7.40;;;2.60;;
12224;SDS011;6175;50.956;11.064;2023-04-25T12:04:26;7.07;;;3.00;;
12224;SDS011;6175;50.956;11.064;2023-04-25T12:06:56;6.95;;;2.88;;
12224;SDS011;6175;50.956;11.064;2023-04-25T12:09:29;5.80;;;2.60;;
12224;SDS011;6175;50.956;11.064;2023-04-25T12:11:57;8.27;;;2.85;;
12224;SDS011;6175;50.956;11.064;2023-04-25T12:14:28;5.55;;;2.60;;
12224;SDS011;6175;50.956;11.064;2023-04-25T12:16:56;7.97;;;2.65;;
12224;SDS011;6175;50.956;11.064;2023-04-25T12:19:24;4.97;;;2.70;;
12224;SDS011;6175;50.956;11.064;2023-04-25T12:21:51;4.20;;;2.70;;
12224;SDS011;6175;50.956;11.064;2023-04-25T12:24:21;7.70;;;3.08;;
12224;SDS011;6175;50.956;11.064;2023-04-25T12:26:52;7.68;;;3.15;;
12224;SDS011;6175;50.956;11.064;2023-04-25T12:29:25;6.88;;;3.40;;
12224;SDS011;6175;50.956;11.064;2023-04-25T12:31:54;5.75;;;2.70;;
12224;SDS011;6175;50.956;11.064;2023-04-25T12:34:21;7.70;;;2.88;;
12224;SDS011;6175;50.956;11.064;2023-04-25T12:36:49;6.95;;;2.15;;
12224;SDS011;6175;50.956;11.064;2023-04-25T12:39:18;7.95;;;3.05;;
12224;SDS011;6175;50.956;11.064;2023-04-25T12:41:46;5.57;;;2.67;;
12224;SDS011;6175;50.956;11.064;2023-04-25T12:44:15;9.02;;;2.92;;
12224;SDS011;6175;50.956;11.064;2023-04-25T12:46:43;5.95;;;2.47;;
12224;SDS011;6175;50.956;11.064;2023-04-25T12:49:10;7.97;;;3.38;;
12224;SDS011;6175;50.956;11.064;2023-04-25T12:51:37;3.25;;;2.10;;
12224;SDS011;6175;50.956;11.064;2023-04-25T12:54:06;5.63;;;2.20;;
12224;SDS011;6175;50.956;11.064;2023-04-25T12:56:34;7.38;;;2.45;;
12224;SDS011;6175;50.956;11.064;2023-04-25T12:59:01;4.28;;;2.33;;
12224;SDS011;6175;50.956;11.064;2023-04-25T13:01:30;7.82;;;2.45;;
12224;SDS011;6175;50.956;11.064;2023-04-25T13:03:58;7.00;;;2.50;;
12224;SDS011;6175;50.956;11.064;2023-04-25T13:06:25;7.20;;;2.65;;
12224;SDS011;6175;50.956;11.064;2023-04-25T13:08:52;6.28;;;2.83;;
12224;SDS011;6175;50.956;11.064;2023-04-25T13:11:20;4.20;;;2.30;;
12224;SDS011;6175;50.956;11.064;2023-04-25T13:13:47;5.35;;;2.90;;
12224;SDS011;6175;50.956;11.064;2023-04-25T13:16:14;5.38;;;3.00;;
12224;SDS011;6175;50.956;11.064;2023-04-25T13:18:43;7.68;;;2.80;;
12224;SDS011;6175;50.956;11.064;2023-04-25T13:21:10;5.65;;;2.90;;
12224;SDS011;6175;50.956;11.064;2023-04-25T13:23:37;6.43;;;3.00;;
12224;SDS011;6175;50.956;11.064;2023-04-25T13:26:05;8.63;;;3.13;;
12224;SDS011;6175;50.956;11.064;2023-04-25T13:28:32;7.35;;;4.53;;
12224;SDS011;6175;50.956;11.064;2023-04-25T13:31:00;7.00;;;2.30;;
12224;SDS011;6175;50.956;11.064;2023-04-25T13:33:27;5.40;;;2.38;;
12224;SDS011;6175;50.956;11.064;2023-04-25T13:35:56;6.30;;;2.30;;
12224;SDS011;6175;50.956;11.064;2023-04-25T13:38:23;7.00;;;2.42;;
12224;SDS011;6175;50.956;11.064;2023-04-25T13:40:51;6.20;;;2.35;;
12224;SDS011;6175;50.956;11.064;2023-04-25T13:43:18;5.18;;;2.30;;
12224;SDS011;6175;50.956;11.064;2023-04-25T13:45:46;5.20;;;2.38;;
12224;SDS011;6175;50.956;11.064;2023-04-25T13:48:13;6.07;;;2.80;;
12224;SDS011;6175;50.956;11.064;2023-04-25T13:50:40;6.32;;;2.08;;
12224;SDS011;6175;50.956;11.064;2023-04-25T13:53:08;6.10;;;2.30;;
12224;SDS011;6175;50.956;11.064;2023-04-25T13:55:35;5.22;;;1.80;;
12224;SDS011;6175;50.956;11.064;2023-04-25T13:58:03;4.55;;;2.08;;
12224;SDS011;6175;50.956;11.064;2023-04-25T14:00:33;4.55;;;2.35;;
12224;SDS011;6175;50.956;11.064;2023-04-25T14:03:02;4.15;;;2.53;;
12224;SDS011;6175;50.956;11.064;2023-04-25T14:05:32;4.32;;;2.03;;
12224;SDS011;6175;50.956;11.064;2023-04-25T14:08:02;5.90;;;2.42;;
12224;SDS011;6175;50.956;11.064;2023-04-25T14:10:31;2.97;;;2.00;;
12224;SDS011;6175;50.956;11.064;2023-04-25T14:12:58;4.50;;;2.25;;
12224;SDS011;6175;50.956;11.064;2023-04-25T14:15:27;4.88;;;1.90;;
12224;SDS011;6175;50.956;11.064;2023-04-25T14:17:55;3.72;;;1.95;;
12224;SDS011;6175;50.956;11.064;2023-04-25T14:20:22;4.38;;;2.28;;
12224;SDS011;6175;50.956;11.064;2023-04-25T14:22:48;6.03;;;2.10;;
12224;SDS011;6175;50.956;11.064;2023-04-25T14:25:17;3.75;;;2.05;;
12224;SDS011;6175;50.956;11.064;2023-04-25T14:27:45;4.75;;;2.15;;
12224;SDS011;6175;50.956;11.064;2023-04-25T14:30:14;6.13;;;2.17;;
12224;SDS011;6175;50.956;11.064;2023-04-25T14:32:41;3.70;;;2.20;;
12224;SDS011;6175;50.956;11.064;2023-04-25T14:35:09;5.35;;;2.22;;
12224;SDS011;6175;50.956;11.064;2023-04-25T14:37:36;3.85;;;2.00;;
12224;SDS011;6175;50.956;11.064;2023-04-25T14:40:04;5.72;;;2.40;;
12224;SDS011;6175;50.956;11.064;2023-04-25T14:42:33;5.32;;;2.47;;
12224;SDS011;6175;50.956;11.064;2023-04-25T14:45:01;5.50;;;2.55;;
12224;SDS011;6175;50.956;11.064;2023-04-25T14:47:29;4.50;;;2.05;;
12224;SDS011;6175;50.956;11.064;2023-04-25T14:49:56;4.82;;;2.17;;
12224;SDS011;6175;50.956;11.064;2023-04-25T14:52:23;5.85;;;2.22;;